Terminal Aerodrome Forecast
Issued by NWS Cleveland, OH

Home | Current Version | Previous Version | Text Only | Print | Product List | Glossary On
Versions: 1 2 3 4 5 6 7 8 9 10 11 12 13 14 15 16
000
FTUS41 KCLE 302300
TAFMFD
TAF
KMFD 302339Z 3100/3124 20014G22KT P6SM VCSH SCT050 BKN120
     FM310300 21011KT 6SM -SHRA VCTS BKN050CB OVC120
     FM310600 23008KT 4SM -SHRA BR OVC018
     FM311600 21010KT P6SM VCSH BKN025=

USA.gov is the U.S. government's official web portal to all federal, state and local government web resources and services.